Platitera Tonouranon — SX7180 — position and weather

sailwx.info

Track history (hours):
 
Tides and Currents Weather Stations Pressure Air Temp Water Temp Dewpoint Dewpoint Depression Visibility Wind Speed Wind Dir Waves Ship Positions

Platitera Tonouranon

Last reported at 2014-Sep-23 16:34 UTC. Time now 2014-Sep-23 22:32 UTC.
Position N 37°56' E 023°41'.

Length 55 m; draft 3.8 m.

Type: Ship (hazmat cat A). MMSI: 237038200.

Date/timePositionNaut miles runAvg speedWind from/ knotsBaromVisibWave heightAir tempDewpointWater temp
2014-Sep-23 16:34N 37°56' E 023°41'1211.6
2014-Sep-23 15:34N 37°50' E 023°29'6 4.7
2014-Sep-23 14:21N 37°45' E 023°26'0 0.0
2014-Sep-23 13:32N 37°45' E 023°26'6 5.7
2014-Sep-23 12:33N 37°39' E 023°25'14 6.5
2014-Sep-23 10:26N 37°26' E 023°32'6 6.1
2014-Sep-23 09:25N 37°21' E 023°28'0 0.1
2014-Sep-23 08:30N 37°21' E 023°28'1010.9
2014-Sep-23 07:33N 37°31' E 023°33'1211.7
2014-Sep-23 06:33N 37°42' E 023°35'1211.8
2014-Sep-23 05:34N 37°53' E 023°39'2 0.2
2014-Sep-22 16:33N 37°56' E 023°40'1111.5
2014-Sep-22 15:34N 37°48' E 023°29'4 4.4
2014-Sep-22 14:33N 37°45' E 023°26'0 0.0
2014-Sep-22 13:32N 37°45' E 023°26'6 5.8
2014-Sep-22 12:33N 37°39' E 023°25'13 6.3
2014-Sep-22 10:33N 37°27' E 023°31'7 5.5
2014-Sep-22 09:19N 37°21' E 023°28'22 7.8
2014-Sep-22 06:33N 37°42' E 023°35'1211.7
2014-Sep-22 05:33N 37°53' E 023°39'3 3.2
2014-Sep-22 04:33N 37°56' E 023°41'0 0.0
2014-Sep-21 17:10N 37°56' E 023°41'3 5.0
2014-Sep-21 16:33N 37°54' E 023°38'1211.5
2014-Sep-21 15:33N 37°47' E 023°27'2 2.4
2014-Sep-21 14:32N 37°45' E 023°26'0 0.0
2014-Sep-21 13:29N 37°45' E 023°26'7 7.9
2014-Sep-21 12:33N 37°37' E 023°27'8 1.4
2014-Sep-21 06:29N 37°41' E 023°36'1111.7
2014-Sep-21 05:34N 37°52' E 023°40'4 4.2
2014-Sep-21 04:34N 37°56' E 023°41'3 0.2
2014-Sep-20 16:33N 37°54' E 023°39'1211.6
2014-Sep-20 15:34N 37°47' E 023°27'3 2.0
2014-Sep-20 14:15N 37°45' E 023°26'0 0.0
2014-Sep-20 13:20N 37°45' E 023°26'810.3
2014-Sep-20 12:32N 37°37' E 023°26'10 1.6
2014-Sep-20 06:33N 37°42' E 023°36'1411.6
2014-Sep-20 05:20N 37°56' E 023°40'1 0.9
2014-Sep-20 04:33N 37°56' E 023°41'1 0.1
2014-Sep-19 16:33N 37°55' E 023°40'1111.3
2014-Sep-19 15:34N 37°48' E 023°29'8 0.8
2014-Sep-19 06:27N 37°43' E 023°37'1311.7
2014-Sep-19 05:23N 37°55' E 023°40'1 1.4
2014-Sep-19 04:34N 37°56' E 023°41'2 0.2
2014-Sep-18 16:33N 37°55' E 023°39'1111.4
2014-Sep-18 15:33N 37°48' E 023°28'4 1.6
2014-Sep-18 13:06N 37°44' E 023°25'9 1.4
2014-Sep-18 06:27N 37°43' E 023°37'1111.9
2014-Sep-18 05:34N 37°53' E 023°40'3 3.1
2014-Sep-18 04:33N 37°56' E 023°41'1 0.1
2014-Sep-17 16:33N 37°56' E 023°40'1111.4
2014-Sep-17 15:33N 37°48' E 023°29'14 4.3
2014-Sep-17 12:11N 37°34' E 023°25'13 2.3
2014-Sep-17 06:26N 37°43' E 023°38'1311.6
2014-Sep-17 05:18N 37°56' E 023°40'1 0.7
2014-Sep-17 04:33N 37°56' E 023°41'0 0.0
2014-Sep-16 17:05N 37°56' E 023°41'2 4.5
2014-Sep-16 16:33N 37°55' E 023°39'1211.5
2014-Sep-16 15:33N 37°47' E 023°27'7 0.8
2014-Sep-16 06:08N 37°46' E 023°36'711.8
2014-Sep-16 05:33N 37°52' E 023°38'4 4.3
2014-Sep-16 04:33N 37°56' E 023°41'0 0.0
2014-Sep-15 16:33N 37°56' E 023°41'1111.2
2014-Sep-15 15:33N 37°49' E 023°30'5 4.9
2014-Sep-15 14:29N 37°45' E 023°26'5 2.6
2014-Sep-15 12:33N 37°40' E 023°25'9 1.4
2014-Sep-15 06:21N 37°43' E 023°35'911.6
2014-Sep-15 05:33N 37°52' E 023°39'5 4.9
2014-Sep-15 04:34N 37°56' E 023°41'0 0.0
2014-Sep-14 17:04N 37°56' E 023°41'3 5.7
2014-Sep-14 16:33N 37°54' E 023°39'1211.6
2014-Sep-14 15:33N 37°47' E 023°27'2 1.1
2014-Sep-14 13:16N 37°45' E 023°25'1010.5
2014-Sep-14 12:18N 37°35' E 023°26'25 3.2
2014-Sep-14 04:33N 37°56' E 023°41'0 0.0
2014-Sep-13 17:08N 37°56' E 023°41'  
Track history (hours):
 
Tides and Currents Weather Stations Pressure Air Temp Water Temp Dewpoint Dewpoint Depression Visibility Wind Speed Wind Dir Waves Ship Positions

Platitera Tonouranon

Last reported at 2014-Sep-23 16:34 UTC. Time now 2014-Sep-23 22:32 UTC.
Position N 37°56' E 023°41'.

Length 55 m; draft 3.8 m.

Type: Ship (hazmat cat A). MMSI: 237038200.

Date/timePositionNaut miles runAvg speedWind from/ knotsBaromVisibWave heightAir tempDewpointWater temp
2014-Sep-23 16:34N 37°56' E 023°41'1211.6
2014-Sep-23 15:34N 37°50' E 023°29'6 4.7
2014-Sep-23 14:21N 37°45' E 023°26'0 0.0
2014-Sep-23 13:32N 37°45' E 023°26'6 5.7
2014-Sep-23 12:33N 37°39' E 023°25'14 6.5
2014-Sep-23 10:26N 37°26' E 023°32'6 6.1
2014-Sep-23 09:25N 37°21' E 023°28'0 0.1
2014-Sep-23 08:30N 37°21' E 023°28'1010.9
2014-Sep-23 07:33N 37°31' E 023°33'1211.7
2014-Sep-23 06:33N 37°42' E 023°35'1211.8
2014-Sep-23 05:34N 37°53' E 023°39'2 0.2
2014-Sep-22 16:33N 37°56' E 023°40'1111.5
2014-Sep-22 15:34N 37°48' E 023°29'4 4.4
2014-Sep-22 14:33N 37°45' E 023°26'0 0.0
2014-Sep-22 13:32N 37°45' E 023°26'6 5.8
2014-Sep-22 12:33N 37°39' E 023°25'13 6.3
2014-Sep-22 10:33N 37°27' E 023°31'7 5.5
2014-Sep-22 09:19N 37°21' E 023°28'22 7.8
2014-Sep-22 06:33N 37°42' E 023°35'1211.7
2014-Sep-22 05:33N 37°53' E 023°39'3 3.2
2014-Sep-22 04:33N 37°56' E 023°41'0 0.0
2014-Sep-21 17:10N 37°56' E 023°41'3 5.0
2014-Sep-21 16:33N 37°54' E 023°38'1211.5
2014-Sep-21 15:33N 37°47' E 023°27'2 2.4
2014-Sep-21 14:32N 37°45' E 023°26'0 0.0
2014-Sep-21 13:29N 37°45' E 023°26'7 7.9
2014-Sep-21 12:33N 37°37' E 023°27'8 1.4
2014-Sep-21 06:29N 37°41' E 023°36'1111.7
2014-Sep-21 05:34N 37°52' E 023°40'4 4.2
2014-Sep-21 04:34N 37°56' E 023°41'3 0.2
2014-Sep-20 16:33N 37°54' E 023°39'1211.6
2014-Sep-20 15:34N 37°47' E 023°27'3 2.0
2014-Sep-20 14:15N 37°45' E 023°26'0 0.0
2014-Sep-20 13:20N 37°45' E 023°26'810.3
2014-Sep-20 12:32N 37°37' E 023°26'10 1.6
2014-Sep-20 06:33N 37°42' E 023°36'1411.6
2014-Sep-20 05:20N 37°56' E 023°40'1 0.9
2014-Sep-20 04:33N 37°56' E 023°41'1 0.1
2014-Sep-19 16:33N 37°55' E 023°40'1111.3
2014-Sep-19 15:34N 37°48' E 023°29'8 0.8
2014-Sep-19 06:27N 37°43' E 023°37'1311.7
2014-Sep-19 05:23N 37°55' E 023°40'1 1.4
2014-Sep-19 04:34N 37°56' E 023°41'2 0.2
2014-Sep-18 16:33N 37°55' E 023°39'1111.4
2014-Sep-18 15:33N 37°48' E 023°28'4 1.6
2014-Sep-18 13:06N 37°44' E 023°25'9 1.4
2014-Sep-18 06:27N 37°43' E 023°37'1111.9
2014-Sep-18 05:34N 37°53' E 023°40'3 3.1
2014-Sep-18 04:33N 37°56' E 023°41'1 0.1
2014-Sep-17 16:33N 37°56' E 023°40'1111.4
2014-Sep-17 15:33N 37°48' E 023°29'14 4.3
2014-Sep-17 12:11N 37°34' E 023°25'13 2.3
2014-Sep-17 06:26N 37°43' E 023°38'1311.6
2014-Sep-17 05:18N 37°56' E 023°40'1 0.7
2014-Sep-17 04:33N 37°56' E 023°41'0 0.0
2014-Sep-16 17:05N 37°56' E 023°41'2 4.5
2014-Sep-16 16:33N 37°55' E 023°39'1211.5
2014-Sep-16 15:33N 37°47' E 023°27'7 0.8
2014-Sep-16 06:08N 37°46' E 023°36'711.8
2014-Sep-16 05:33N 37°52' E 023°38'4 4.3
2014-Sep-16 04:33N 37°56' E 023°41'0 0.0
2014-Sep-15 16:33N 37°56' E 023°41'1111.2
2014-Sep-15 15:33N 37°49' E 023°30'5 4.9
2014-Sep-15 14:29N 37°45' E 023°26'5 2.6
2014-Sep-15 12:33N 37°40' E 023°25'9 1.4
2014-Sep-15 06:21N 37°43' E 023°35'911.6
2014-Sep-15 05:33N 37°52' E 023°39'5 4.9
2014-Sep-15 04:34N 37°56' E 023°41'0 0.0
2014-Sep-14 17:04N 37°56' E 023°41'3 5.7
2014-Sep-14 16:33N 37°54' E 023°39'1211.6
2014-Sep-14 15:33N 37°47' E 023°27'2 1.1
2014-Sep-14 13:16N 37°45' E 023°25'1010.5
2014-Sep-14 12:18N 37°35' E 023°26'25 3.2
2014-Sep-14 04:33N 37°56' E 023°41'0 0.0
2014-Sep-13 17:08N 37°56' E 023°41'  

Dump ship's entire track history